Time;durP1;ratioP1;P1;durP2;ratioP2;P2;SDS_P1;SDS_P2;PMS_P1;PMS_P2;Temp;Humidity;BMP_temperature;BMP_pressure;BME280_temperature;BME280_humidity;BME280_pressure;Samples;Min_cycle;Max_cycle;Signal;HPM_P1;HPM_P2
2022/07/29 00:00:32;;;;;;;3.87;1.50;;;20.40;99.90;;;;;;5083628;28;20825;-79
2022/07/29 00:02:59;;;;;;;4.43;1.20;;;20.40;99.90;;;;;;5083365;28;20461;-80
2022/07/29 00:05:26;;;;;;;3.70;1.40;;;20.40;99.90;;;;;;5086051;28;20493;-80
2022/07/29 00:07:52;;;;;;;4.90;1.20;;;20.40;99.90;;;;;;5086260;28;20475;-81
2022/07/29 00:10:19;;;;;;;2.57;1.00;;;20.40;99.90;;;;;;5085669;28;20451;-81
2022/07/29 00:12:46;;;;;;;3.57;1.57;;;20.30;99.90;;;;;;5082802;28;20455;-81
2022/07/29 00:15:15;;;;;;;3.50;1.20;;;20.30;99.90;;;;;;5086069;28;20510;-80
2022/07/29 00:17:41;;;;;;;9.07;1.40;;;20.30;99.90;;;;;;5086499;28;20563;-80
2022/07/29 00:20:10;;;;;;;5.90;1.57;;;20.20;99.90;;;;;;5085378;28;20478;-81
2022/07/29 00:22:38;;;;;;;5.07;1.30;;;20.20;99.90;;;;;;5083872;28;20997;-77
2022/07/29 00:25:06;;;;;;;7.20;1.27;;;20.20;99.90;;;;;;5080584;28;20446;-79
2022/07/29 00:27:33;;;;;;;4.73;1.27;;;20.20;99.90;;;;;;5083765;28;20482;-80
2022/07/29 00:29:59;;;;;;;3.17;1.20;;;20.20;99.90;;;;;;5084280;28;20486;-78
2022/07/29 00:32:28;;;;;;;3.43;1.20;;;20.10;99.90;;;;;;5083330;28;20542;-80
2022/07/29 00:37:53;;;;;;;4.23;1.20;;;20.10;99.90;;;;;;5090760;22;20472;-83
2022/07/29 00:40:20;;;;;;;3.00;1.10;;;20.10;99.90;;;;;;5078130;28;20504;-84
2022/07/29 00:42:50;;;;;;;3.83;1.40;;;20.10;99.90;;;;;;5072845;28;20515;-80
2022/07/29 00:45:18;;;;;;;3.17;1.20;;;20.10;99.90;;;;;;5054351;28;20437;-81
2022/07/29 00:47:46;;;;;;;3.10;1.47;;;20.00;99.90;;;;;;5050643;28;20469;-81
2022/07/29 00:50:14;;;;;;;3.13;1.10;;;20.00;99.90;;;;;;5067335;28;20452;-79
2022/07/29 00:52:43;;;;;;;3.67;1.10;;;20.00;99.90;;;;;;5068389;28;20444;-81
2022/07/29 00:55:11;;;;;;;5.33;1.43;;;20.00;99.90;;;;;;5052118;28;20519;-80
2022/07/29 00:57:39;;;;;;;4.00;1.43;;;20.00;99.90;;;;;;5050020;28;20461;-80
2022/07/29 01:00:08;;;;;;;3.50;1.40;;;20.10;99.90;;;;;;5063883;28;20809;-81
2022/07/29 01:02:35;;;;;;;3.50;1.37;;;20.00;99.90;;;;;;5065479;28;20551;-81
2022/07/29 01:05:04;;;;;;;3.93;1.37;;;20.00;99.90;;;;;;5048715;28;20472;-80
2022/07/29 01:07:32;;;;;;;4.13;1.33;;;20.00;99.90;;;;;;5062097;28;20472;-78
2022/07/29 01:10:00;;;;;;;4.50;1.40;;;20.00;99.90;;;;;;5069843;28;20468;-80
2022/07/29 01:12:31;;;;;;;3.60;1.40;;;20.00;99.90;;;;;;5068996;28;20463;-79
2022/07/29 01:14:59;;;;;;;6.23;1.43;;;19.90;99.90;;;;;;5066067;28;20475;-81
2022/07/29 01:17:32;;;;;;;6.70;1.60;;;19.90;99.90;;;;;;5064226;28;20897;-82
2022/07/29 01:20:07;;;;;;;3.43;1.30;;;19.90;99.90;;;;;;5068991;28;20451;-80
2022/07/29 01:22:53;;;;;;;5.17;1.70;;;19.90;99.90;;;;;;5067627;28;20474;-81
2022/07/29 01:25:47;;;;;;;7.00;2.00;;;19.80;99.90;;;;;;5073952;28;20944;-82
2022/07/29 01:28:35;;;;;;;6.67;2.30;;;19.80;99.90;;;;;;5065854;28;20464;-78
2022/07/29 01:31:07;;;;;;;3.90;1.50;;;19.70;99.90;;;;;;5065353;28;20877;-81
2022/07/29 01:33:50;;;;;;;7.07;1.80;;;19.60;99.90;;;;;;5063403;28;20479;-78
2022/07/29 01:36:20;;;;;;;5.77;1.60;;;19.60;99.90;;;;;;5047321;28;20489;-82
2022/07/29 01:38:59;;;;;;;3.93;1.40;;;19.60;99.90;;;;;;5048181;28;20493;-82
2022/07/29 01:41:32;;;;;;;5.33;1.53;;;19.60;99.90;;;;;;5067146;28;20432;-81
2022/07/29 01:44:03;;;;;;;4.20;1.80;;;19.60;99.90;;;;;;5066870;28;20447;-80
2022/07/29 01:46:35;;;;;;;4.00;1.50;;;19.50;99.90;;;;;;5057306;28;20448;-82
2022/07/29 01:49:07;;;;;;;4.90;1.43;;;19.50;99.90;;;;;;5047613;28;20505;-79
2022/07/29 01:51:41;;;;;;;4.20;1.30;;;19.50;99.90;;;;;;5047813;28;20471;-78
2022/07/29 01:54:13;;;;;;;5.27;2.03;;;19.50;99.90;;;;;;5045866;28;20452;-78
2022/07/29 01:56:41;;;;;;;4.40;1.37;;;19.40;99.90;;;;;;5048085;28;20911;-80
2022/07/29 01:59:10;;;;;;;4.30;1.70;;;19.40;99.90;;;;;;5052074;28;20485;-78
2022/07/29 02:01:41;;;;;;;5.77;1.63;;;19.40;99.90;;;;;;5050289;28;20480;-80
2022/07/29 02:04:12;;;;;;;4.47;2.00;;;19.40;99.90;;;;;;5049385;28;20449;-81
2022/07/29 02:06:41;;;;;;;3.53;2.03;;;19.40;99.90;;;;;;5050190;28;20445;-79
2022/07/29 02:09:11;;;;;;;4.53;1.33;;;19.40;99.90;;;;;;5058874;28;20909;-81
2022/07/29 02:11:39;;;;;;;4.53;1.63;;;19.40;99.90;;;;;;5054294;28;20490;-80
2022/07/29 02:14:07;;;;;;;5.97;2.00;;;19.30;99.90;;;;;;5068325;28;20519;-80
2022/07/29 02:16:39;;;;;;;3.80;1.60;;;19.30;99.90;;;;;;5061935;28;20579;-80
2022/07/29 02:19:09;;;;;;;2.93;1.63;;;19.20;99.90;;;;;;5062582;28;20903;-80
2022/07/29 02:21:36;;;;;;;4.80;1.63;;;19.20;99.90;;;;;;5055493;28;20486;-81
2022/07/29 02:24:05;;;;;;;4.37;1.43;;;19.20;99.90;;;;;;5068158;28;20459;-81
2022/07/29 02:26:34;;;;;;;3.10;1.20;;;19.20;99.90;;;;;;5065419;28;20448;-81
2022/07/29 02:29:02;;;;;;;3.70;1.47;;;19.10;99.90;;;;;;5047996;28;20489;-81
2022/07/29 02:31:33;;;;;;;4.23;1.60;;;19.10;99.90;;;;;;5049501;28;20459;-81
2022/07/29 02:34:02;;;;;;;3.10;1.30;;;19.10;99.90;;;;;;5058632;28;20487;-81
2022/07/29 02:36:32;;;;;;;3.70;1.43;;;19.10;99.90;;;;;;5067328;28;20493;-82
2022/07/29 02:39:00;;;;;;;4.20;1.50;;;19.10;99.90;;;;;;5067430;28;20509;-80
2022/07/29 02:41:29;;;;;;;5.47;1.50;;;19.10;99.90;;;;;;5067705;28;20462;-80
2022/07/29 02:43:59;;;;;;;5.73;1.37;;;19.10;99.90;;;;;;5067482;28;20452;-80
2022/07/29 02:46:31;;;;;;;6.27;1.87;;;19.10;99.90;;;;;;5056152;28;20518;-82
2022/07/29 02:49:03;;;;;;;5.53;1.63;;;19.10;99.90;;;;;;5054413;28;20503;-81
2022/07/29 02:51:42;;;;;;;5.73;1.63;;;19.10;99.90;;;;;;5075336;28;20924;-79
2022/07/29 02:54:11;;;;;;;5.57;1.33;;;19.10;99.90;;;;;;5070324;28;20451;-80
2022/07/29 02:56:40;;;;;;;3.97;1.50;;;19.00;99.90;;;;;;5065749;28;20480;-80
2022/07/29 02:59:12;;;;;;;6.50;1.60;;;19.00;99.90;;;;;;5068782;28;20452;-80
2022/07/29 03:01:43;;;;;;;6.23;1.40;;;19.00;99.90;;;;;;5069739;28;20491;-79
2022/07/29 03:04:13;;;;;;;3.70;1.20;;;19.00;99.90;;;;;;5068822;28;20459;-81
2022/07/29 03:06:43;;;;;;;3.50;1.40;;;19.00;99.90;;;;;;5049297;28;20472;-79
2022/07/29 03:09:11;;;;;;;6.70;1.63;;;18.90;99.90;;;;;;5049624;28;20507;-80
2022/07/29 03:11:39;;;;;;;3.50;1.23;;;18.90;99.90;;;;;;5067096;28;20455;-80
2022/07/29 03:14:07;;;;;;;4.00;1.10;;;18.90;99.90;;;;;;5067269;28;20480;-78
2022/07/29 03:16:36;;;;;;;3.43;1.37;;;18.90;99.90;;;;;;5049011;28;20505;-80
2022/07/29 03:19:04;;;;;;;4.40;1.60;;;18.80;99.90;;;;;;5048025;28;20479;-79
2022/07/29 03:21:33;;;;;;;4.30;1.97;;;18.80;99.90;;;;;;5058515;28;20484;-79
2022/07/29 03:23:59;;;;;;;5.50;1.30;;;18.80;99.90;;;;;;5044488;28;20539;-81
2022/07/29 03:26:27;;;;;;;3.40;1.73;;;18.80;99.90;;;;;;5060694;28;20964;-81
2022/07/29 03:28:54;;;;;;;3.73;1.73;;;18.80;99.90;;;;;;5066008;28;20903;-81
2022/07/29 03:31:20;;;;;;;4.83;1.67;;;18.80;99.90;;;;;;5065701;28;20458;-79
2022/07/29 03:33:47;;;;;;;3.93;1.60;;;18.80;99.90;;;;;;5059835;28;20527;-80
2022/07/29 03:36:14;;;;;;;7.50;1.90;;;18.80;99.90;;;;;;5067495;28;20488;-80
2022/07/29 03:38:45;;;;;;;4.30;1.47;;;18.80;99.90;;;;;;5066625;28;20513;-81
2022/07/29 03:41:13;;;;;;;3.43;1.20;;;18.80;99.90;;;;;;5068477;28;20530;-81
2022/07/29 03:43:42;;;;;;;3.73;1.50;;;18.80;99.90;;;;;;5065847;28;20486;-80
2022/07/29 03:46:11;;;;;;;4.60;1.77;;;18.80;99.90;;;;;;5068361;28;20455;-81
2022/07/29 03:48:43;;;;;;;4.27;1.60;;;18.70;99.90;;;;;;5069082;28;20475;-81
2022/07/29 03:51:10;;;;;;;3.80;1.63;;;18.60;99.90;;;;;;5071071;28;20452;-82
2022/07/29 03:53:37;;;;;;;2.93;1.37;;;18.70;99.90;;;;;;5061556;28;20484;-83
2022/07/29 03:56:08;;;;;;;4.10;1.43;;;18.70;99.90;;;;;;5051282;28;20479;-80
2022/07/29 03:58:36;;;;;;;4.23;1.50;;;18.70;99.90;;;;;;5065767;28;20500;-82
2022/07/29 04:01:03;;;;;;;2.50;1.33;;;18.70;99.90;;;;;;5065815;28;20455;-79
2022/07/29 04:03:31;;;;;;;5.37;1.50;;;18.80;99.90;;;;;;5065851;28;20489;-79
2022/07/29 04:06:02;;;;;;;4.30;1.63;;;18.80;99.90;;;;;;5065393;28;20444;-79
2022/07/29 04:08:29;;;;;;;3.17;1.30;;;18.80;99.90;;;;;;5060068;28;20486;-79
2022/07/29 04:10:56;;;;;;;3.00;1.40;;;18.80;99.90;;;;;;5053271;28;20459;-79
2022/07/29 04:13:24;;;;;;;3.93;1.30;;;18.80;99.90;;;;;;5046275;28;20488;-80
2022/07/29 04:15:51;;;;;;;4.70;1.80;;;18.80;99.90;;;;;;5045263;28;20485;-82
2022/07/29 04:18:18;;;;;;;5.53;1.50;;;18.80;99.90;;;;;;5047652;28;20495;-81
2022/07/29 04:20:45;;;;;;;3.60;1.57;;;18.90;99.90;;;;;;5055962;28;21322;-79
2022/07/29 04:23:12;;;;;;;3.20;1.50;;;19.00;99.90;;;;;;5064643;28;20988;-78
2022/07/29 04:25:39;;;;;;;3.20;1.27;;;19.00;99.90;;;;;;5064977;28;20471;-79
2022/07/29 04:28:07;;;;;;;4.03;1.57;;;18.90;99.90;;;;;;5067311;28;20507;-78
2022/07/29 04:30:36;;;;;;;3.40;1.50;;;18.90;99.90;;;;;;5061712;28;20483;-80
2022/07/29 04:33:05;;;;;;;4.27;1.80;;;18.90;99.90;;;;;;5060317;28;20467;-79
2022/07/29 04:35:35;;;;;;;13.13;2.10;;;18.90;99.90;;;;;;5046011;28;20547;-80
2022/07/29 04:38:02;;;;;;;14.40;1.47;;;18.90;99.90;;;;;;5046633;28;20484;-81
2022/07/29 04:40:29;;;;;;;3.57;1.30;;;18.80;99.90;;;;;;5053397;28;20526;-79
2022/07/29 04:42:56;;;;;;;4.40;1.80;;;18.80;99.90;;;;;;5045797;28;20480;-82
2022/07/29 04:45:23;;;;;;;4.30;1.90;;;18.60;99.90;;;;;;5052770;28;20490;-78
2022/07/29 04:47:51;;;;;;;5.60;1.33;;;18.60;99.90;;;;;;5056426;28;20561;-78
2022/07/29 04:50:18;;;;;;;3.90;1.50;;;18.90;99.90;;;;;;5053311;28;20493;-82
2022/07/29 04:52:45;;;;;;;3.50;1.70;;;19.00;99.90;;;;;;5053033;28;20462;-81
2022/07/29 04:55:12;;;;;;;4.60;1.80;;;19.00;99.90;;;;;;5066701;28;20488;-79
2022/07/29 04:57:39;;;;;;;4.07;2.00;;;18.70;99.90;;;;;;5064044;28;20489;-81
2022/07/29 05:00:07;;;;;;;4.40;1.50;;;18.60;99.90;;;;;;5041267;28;20460;-81
2022/07/29 05:02:34;;;;;;;5.17;2.10;;;18.60;99.90;;;;;;5046523;28;20462;-80
2022/07/29 05:05:02;;;;;;;6.70;1.77;;;18.50;99.90;;;;;;5046506;28;20483;-81
2022/07/29 05:07:29;;;;;;;8.40;1.97;;;18.50;99.90;;;;;;5072581;28;20513;-80
2022/07/29 05:09:56;;;;;;;5.80;2.37;;;18.30;99.90;;;;;;5054740;28;20455;-79
2022/07/29 05:12:24;;;;;;;5.70;1.87;;;17.90;99.90;;;;;;5058647;28;20484;-77
2022/07/29 05:14:51;;;;;;;4.83;1.83;;;18.00;99.90;;;;;;5055504;28;20452;-78
2022/07/29 05:17:18;;;;;;;4.17;1.73;;;18.10;99.90;;;;;;5051202;28;20561;-80
2022/07/29 05:19:45;;;;;;;6.67;1.67;;;18.10;99.90;;;;;;5041573;28;20530;-79
2022/07/29 05:22:13;;;;;;;5.93;2.13;;;18.10;99.90;;;;;;5057574;28;20486;-80
2022/07/29 05:24:40;;;;;;;4.97;1.83;;;18.10;99.90;;;;;;5056704;28;21005;-78
2022/07/29 05:27:07;;;;;;;4.40;2.00;;;18.00;99.90;;;;;;5056130;28;20483;-79
2022/07/29 05:29:34;;;;;;;2.97;1.70;;;18.10;99.90;;;;;;5054992;28;20554;-79
2022/07/29 05:32:01;;;;;;;4.33;2.13;;;18.10;99.90;;;;;;5051862;28;20547;-80
2022/07/29 05:34:28;;;;;;;4.70;1.97;;;18.10;99.90;;;;;;5059262;28;20781;-78
2022/07/29 05:36:54;;;;;;;6.00;2.27;;;18.20;99.90;;;;;;5061938;28;21225;-80
2022/07/29 05:39:23;;;;;;;3.23;1.93;;;18.10;99.90;;;;;;5061737;28;20452;-79
2022/07/29 05:41:50;;;;;;;7.70;2.20;;;18.00;99.90;;;;;;5060777;28;20462;-79
2022/07/29 05:44:17;;;;;;;5.00;2.10;;;17.90;99.90;;;;;;5062720;28;20898;-80
2022/07/29 05:46:43;;;;;;;7.73;2.50;;;17.90;99.90;;;;;;5057237;28;21024;-80
2022/07/29 05:49:10;;;;;;;5.97;2.10;;;17.90;99.90;;;;;;5063080;28;20459;-78
2022/07/29 05:51:37;;;;;;;5.50;2.30;;;17.90;99.90;;;;;;5061989;28;20561;-78
2022/07/29 05:54:04;;;;;;;4.13;1.70;;;18.00;99.90;;;;;;5061768;28;20506;-78
2022/07/29 05:56:33;;;;;;;5.30;2.80;;;17.90;99.90;;;;;;5061036;28;20506;-79
2022/07/29 05:58:59;;;;;;;4.50;1.70;;;17.80;99.90;;;;;;5062413;28;20473;-79
2022/07/29 06:01:26;;;;;;;5.90;1.83;;;17.80;99.90;;;;;;5060891;28;20462;-79
2022/07/29 06:03:53;;;;;;;3.43;2.10;;;17.80;99.90;;;;;;5061757;28;20453;-79
2022/07/29 06:06:20;;;;;;;4.27;1.93;;;17.80;99.90;;;;;;5060304;28;20514;-80
2022/07/29 06:08:47;;;;;;;5.40;2.80;;;17.90;99.90;;;;;;5054599;28;20500;-80
2022/07/29 06:11:14;;;;;;;4.27;2.27;;;17.90;99.90;;;;;;5047462;28;20528;-80
2022/07/29 06:13:42;;;;;;;5.50;2.53;;;18.00;99.90;;;;;;5045813;28;20458;-78
2022/07/29 06:16:09;;;;;;;5.40;2.60;;;18.10;99.90;;;;;;5057352;28;20489;-79
2022/07/29 06:18:36;;;;;;;7.30;2.00;;;18.10;99.90;;;;;;5060249;28;20810;-79
2022/07/29 06:21:08;;;;;;;4.00;2.10;;;18.20;99.90;;;;;;5056891;28;20523;-79
2022/07/29 06:23:35;;;;;;;4.97;1.93;;;18.30;99.90;;;;;;5057882;28;20462;-79
2022/07/29 06:26:02;;;;;;;5.40;2.10;;;18.30;99.90;;;;;;5054270;28;20513;-78
2022/07/29 06:28:29;;;;;;;7.20;2.50;;;18.20;99.90;;;;;;5056472;28;20471;-79
2022/07/29 06:30:57;;;;;;;5.60;2.03;;;18.40;99.90;;;;;;5067108;28;20478;-81
2022/07/29 06:33:24;;;;;;;2.97;1.60;;;18.50;99.90;;;;;;5065551;28;20486;-79
2022/07/29 06:35:51;;;;;;;4.30;1.90;;;18.60;99.90;;;;;;5070868;28;20478;-80
2022/07/29 06:38:18;;;;;;;4.27;2.20;;;18.70;99.90;;;;;;5049271;28;20494;-78
2022/07/29 06:43:35;;;;;;;4.27;2.13;;;18.60;99.90;;;;;;5061670;28;20518;-79
2022/07/29 06:46:05;;;;;;;3.00;1.70;;;18.60;99.90;;;;;;5064174;28;20484;-80
2022/07/29 06:48:33;;;;;;;11.30;2.00;;;18.60;99.90;;;;;;5068068;28;20475;-80
2022/07/29 06:51:00;;;;;;;3.53;1.57;;;18.70;99.90;;;;;;5066921;28;20466;-80
2022/07/29 06:53:27;;;;;;;6.13;1.53;;;18.80;99.90;;;;;;5066329;28;20819;-79
2022/07/29 06:55:54;;;;;;;4.30;1.73;;;18.80;99.90;;;;;;5063111;28;20495;-81
2022/07/29 06:58:21;;;;;;;4.10;1.83;;;18.70;99.90;;;;;;5066453;28;20482;-79
2022/07/29 07:00:48;;;;;;;6.10;2.10;;;18.80;99.90;;;;;;5066786;28;20451;-79
2022/07/29 07:03:17;;;;;;;3.10;1.70;;;18.90;99.90;;;;;;5064883;28;20456;-82
2022/07/29 07:05:44;;;;;;;10.63;2.10;;;18.90;99.90;;;;;;5060976;28;20466;-79
2022/07/29 07:08:12;;;;;;;4.17;1.43;;;18.90;99.90;;;;;;5065421;28;20463;-79
2022/07/29 07:10:39;;;;;;;3.23;1.70;;;19.10;99.90;;;;;;5066031;28;20462;-80
2022/07/29 07:13:06;;;;;;;4.47;1.33;;;19.30;99.90;;;;;;5060602;28;20448;-80
2022/07/29 07:15:33;;;;;;;6.47;1.97;;;19.50;99.90;;;;;;5054523;28;20460;-79
2022/07/29 07:18:00;;;;;;;5.20;1.70;;;19.60;99.90;;;;;;5057991;28;20495;-80
2022/07/29 07:20:28;;;;;;;4.67;2.10;;;19.80;99.90;;;;;;5057560;28;20492;-80
2022/07/29 07:22:55;;;;;;;4.23;1.83;;;19.90;99.90;;;;;;5057965;28;20460;-79
2022/07/29 07:25:22;;;;;;;3.50;1.53;;;19.60;99.90;;;;;;5057117;28;20479;-78
2022/07/29 07:27:49;;;;;;;4.73;1.70;;;19.70;99.90;;;;;;5075848;22;21098;-79
2022/07/29 07:30:16;;;;;;;7.30;1.60;;;19.70;99.90;;;;;;5069632;28;20448;-79
2022/07/29 07:32:43;;;;;;;6.70;1.83;;;19.90;99.90;;;;;;5066109;28;20900;-80
2022/07/29 07:35:11;;;;;;;7.17;1.83;;;20.40;99.90;;;;;;5069041;28;20487;-80
2022/07/29 07:37:41;;;;;;;4.37;2.00;;;20.70;99.90;;;;;;5066136;28;20567;-80
2022/07/29 07:40:10;;;;;;;4.23;1.50;;;20.80;99.90;;;;;;5073627;28;20989;-78
2022/07/29 07:42:36;;;;;;;4.47;1.77;;;21.00;99.90;;;;;;5073545;28;20494;-79
2022/07/29 07:45:04;;;;;;;3.73;1.50;;;21.10;99.90;;;;;;5073007;28;20501;-79
2022/07/29 07:47:31;;;;;;;4.33;1.73;;;21.10;99.90;;;;;;5076464;28;20524;-78
2022/07/29 07:49:58;;;;;;;4.67;1.97;;;21.10;99.90;;;;;;5073349;28;20538;-79
2022/07/29 07:52:25;;;;;;;4.07;1.67;;;21.00;99.90;;;;;;5069409;28;20546;-78
2022/07/29 07:54:53;;;;;;;3.40;1.47;;;21.00;99.90;;;;;;5073915;28;20546;-80
2022/07/29 07:57:23;;;;;;;6.60;1.90;;;21.10;99.90;;;;;;5071373;28;20497;-81
2022/07/29 07:59:59;;;;;;;3.40;1.30;;;21.00;99.90;;;;;;5068077;28;20447;-79
2022/07/29 08:02:26;;;;;;;3.43;1.47;;;21.10;99.90;;;;;;5071264;28;20527;-80
2022/07/29 08:04:53;;;;;;;3.90;1.50;;;21.10;99.90;;;;;;5071278;28;20474;-79
2022/07/29 08:07:19;;;;;;;5.37;2.00;;;21.10;99.90;;;;;;5072493;28;20513;-79
2022/07/29 08:09:49;;;;;;;3.73;1.70;;;21.10;99.90;;;;;;5075700;28;20455;-80
2022/07/29 08:12:17;;;;;;;4.40;1.77;;;21.20;99.90;;;;;;5077212;28;20522;-82
2022/07/29 08:14:44;;;;;;;3.73;1.50;;;21.20;99.90;;;;;;5070947;28;20499;-81
2022/07/29 08:17:11;;;;;;;3.27;1.53;;;21.20;99.90;;;;;;5080929;28;20483;-78
2022/07/29 08:19:38;;;;;;;3.70;1.50;;;21.30;99.90;;;;;;5078924;28;20486;-79
2022/07/29 08:22:07;;;;;;;3.70;1.43;;;21.40;99.90;;;;;;5079138;28;20450;-79
2022/07/29 08:24:52;;;;;;;4.10;2.30;;;21.20;99.90;;;;;;5074317;28;20502;-79
2022/07/29 08:27:20;;;;;;;5.40;2.20;;;21.30;99.90;;;;;;5065818;28;20490;-82
2022/07/29 08:29:48;;;;;;;3.70;2.30;;;21.20;99.90;;;;;;5077210;28;20457;-80
2022/07/29 08:32:14;;;;;;;5.47;2.20;;;21.00;99.90;;;;;;5078185;28;20455;-79
2022/07/29 08:34:42;;;;;;;8.00;2.50;;;20.80;99.90;;;;;;5071282;28;20466;-80
2022/07/29 08:37:11;;;;;;;5.60;2.20;;;20.70;99.90;;;;;;5075348;28;20566;-80
2022/07/29 08:39:37;;;;;;;6.90;2.60;;;20.80;99.90;;;;;;5078445;28;20459;-77
2022/07/29 08:42:04;;;;;;;6.67;2.27;;;20.60;99.90;;;;;;5078244;28;20482;-79
2022/07/29 08:44:46;;;;;;;;;;;;;;;;;;;;;
2022/07/29 08:47:20;;;;;;;5.70;2.60;;;20.70;99.90;;;;;;5080958;28;20542;-80
2022/07/29 08:49:48;;;;;;;6.47;2.27;;;20.70;99.90;;;;;;5066480;28;20450;-79
2022/07/29 08:52:15;;;;;;;3.80;1.87;;;20.70;99.90;;;;;;5080675;28;20461;-78
2022/07/29 08:54:44;;;;;;;11.30;2.10;;;20.70;99.90;;;;;;5079502;28;20447;-80
2022/07/29 08:57:14;;;;;;;3.73;1.40;;;20.70;99.90;;;;;;5084610;28;20581;-79
2022/07/29 08:59:45;;;;;;;8.03;2.07;;;20.70;99.90;;;;;;5079298;28;20447;-78
2022/07/29 09:02:21;;;;;;;5.33;2.10;;;20.70;99.90;;;;;;5079360;28;20482;-78
2022/07/29 09:04:48;;;;;;;9.00;2.90;;;20.70;99.90;;;;;;5077368;28;20475;-79
2022/07/29 09:07:16;;;;;;;3.43;1.63;;;20.50;99.90;;;;;;5078939;28;20491;-80
2022/07/29 09:09:43;;;;;;;10.13;2.73;;;20.50;99.90;;;;;;5085509;28;20458;-80
2022/07/29 09:12:11;;;;;;;5.30;1.60;;;20.40;99.90;;;;;;5084042;28;20455;-79
2022/07/29 09:14:38;;;;;;;5.93;2.10;;;20.50;99.90;;;;;;5085440;28;20554;-80
2022/07/29 09:17:07;;;;;;;3.60;2.03;;;20.40;99.90;;;;;;5079802;28;21066;-79
2022/07/29 09:19:35;;;;;;;5.13;2.67;;;20.50;99.90;;;;;;5078935;28;20465;-80
2022/07/29 09:22:04;;;;;;;4.53;1.80;;;20.60;99.90;;;;;;5082487;28;20451;-78
2022/07/29 09:24:40;;;;;;;8.40;2.30;;;20.50;99.90;;;;;;5079668;28;20467;-80
2022/07/29 09:27:18;;;;;;;6.13;2.97;;;20.50;99.90;;;;;;5076050;28;20496;-81
2022/07/29 09:29:45;;;;;;;4.90;2.03;;;20.60;99.90;;;;;;5080111;28;20471;-79
2022/07/29 09:32:14;;;;;;;6.23;3.00;;;20.50;99.90;;;;;;5073963;28;20883;-78
2022/07/29 09:34:41;;;;;;;5.50;3.23;;;20.50;99.90;;;;;;5073295;28;20451;-79
2022/07/29 09:37:08;;;;;;;4.90;2.13;;;20.50;99.90;;;;;;5077075;28;20522;-78
2022/07/29 09:39:37;;;;;;;7.77;2.20;;;20.50;99.90;;;;;;5078053;28;20509;-77
2022/07/29 09:42:06;;;;;;;7.93;2.80;;;20.40;99.90;;;;;;5079407;28;20450;-79
2022/07/29 09:44:43;;;;;;;7.80;3.30;;;20.40;99.90;;;;;;5079664;28;20526;-79
2022/07/29 09:47:11;;;;;;;3.67;1.90;;;20.20;99.90;;;;;;5080389;28;20470;-78
2022/07/29 09:49:54;;;;;;;3.63;1.90;;;20.20;99.90;;;;;;5076439;28;20459;-78
2022/07/29 09:52:21;;;;;;;7.60;2.07;;;20.30;99.90;;;;;;5079895;28;20561;-79
2022/07/29 09:54:48;;;;;;;4.40;2.07;;;20.30;99.90;;;;;;5077786;28;20951;-80
2022/07/29 09:57:26;;;;;;;3.53;2.10;;;20.30;99.90;;;;;;5079605;28;20554;-80
2022/07/29 10:00:02;;;;;;;7.50;2.33;;;20.40;99.90;;;;;;5084333;28;20547;-79
2022/07/29 10:02:31;;;;;;;5.30;2.57;;;20.30;99.90;;;;;;5076752;28;20447;-79
2022/07/29 10:04:59;;;;;;;9.60;2.53;;;20.30;99.90;;;;;;5073926;28;20454;-78
2022/07/29 10:07:27;;;;;;;5.23;2.10;;;20.40;99.90;;;;;;5076213;28;20550;-78
2022/07/29 10:09:58;;;;;;;9.00;2.20;;;20.40;99.90;;;;;;5077169;28;20533;-78
2022/07/29 10:12:27;;;;;;;8.20;2.10;;;20.30;99.90;;;;;;5076971;28;20471;-78
2022/07/29 10:14:55;;;;;;;4.27;2.10;;;20.30;99.90;;;;;;5080672;28;20454;-78
2022/07/29 10:17:22;;;;;;;5.53;2.77;;;20.40;99.90;;;;;;5075565;28;20554;-80
2022/07/29 10:19:50;;;;;;;10.17;2.77;;;20.40;99.90;;;;;;5068909;28;20489;-81
2022/07/29 10:22:18;;;;;;;13.43;2.50;;;20.40;99.90;;;;;;5082444;28;20986;-79
2022/07/29 10:24:46;;;;;;;10.83;2.70;;;20.40;99.90;;;;;;5099923;28;20981;-80
2022/07/29 10:27:13;;;;;;;4.20;2.13;;;20.40;99.90;;;;;;5081386;28;20553;-77
2022/07/29 10:29:40;;;;;;;5.50;2.23;;;20.50;99.90;;;;;;5080657;28;20881;-79
2022/07/29 10:32:26;;;;;;;6.20;2.00;;;20.50;99.90;;;;;;5060307;28;20885;-79
2022/07/29 10:35:12;;;;;;;4.77;2.07;;;20.60;99.90;;;;;;5073068;28;20530;-77
2022/07/29 10:37:57;;;;;;;4.90;2.47;;;20.70;99.90;;;;;;5079938;28;20593;-78
2022/07/29 10:43:26;;;;;;;3.30;1.97;;;20.80;99.90;;;;;;5059779;28;20478;-79
2022/07/29 10:45:58;;;;;;;8.43;2.23;;;20.80;99.90;;;;;;5078327;28;20439;-77
2022/07/29 10:48:27;;;;;;;7.37;4.23;;;20.80;99.90;;;;;;5079799;28;20534;-78
2022/07/29 10:50:59;;;;;;;5.43;2.30;;;20.90;99.90;;;;;;5075638;28;20443;-78
2022/07/29 10:53:48;;;;;;;4.33;1.90;;;20.80;99.90;;;;;;5077624;28;20478;-78
2022/07/29 10:56:26;;;;;;;4.03;2.30;;;20.80;99.90;;;;;;5078893;28;20452;-77
2022/07/29 10:59:25;;;;;;;5.80;2.77;;;20.80;99.90;;;;;;5079766;28;20505;-78
2022/07/29 11:01:53;;;;;;;3.90;1.67;;;20.70;99.90;;;;;;5080353;28;20466;-80
2022/07/29 11:04:53;;;;;;;3.43;1.70;;;20.80;99.90;;;;;;5086594;28;20478;-80
2022/07/29 11:07:20;;;;;;;2.97;1.70;;;20.80;99.90;;;;;;5080908;28;20547;-79
2022/07/29 11:10:20;;;;;;;3.87;1.80;;;20.80;99.90;;;;;;5079888;28;20562;-78
2022/07/29 11:12:52;;;;;;;3.03;2.10;;;20.80;99.90;;;;;;5079628;28;20454;-80
2022/07/29 11:15:21;;;;;;;4.40;1.90;;;20.80;99.90;;;;;;5077457;28;20804;-78
2022/07/29 11:18:08;;;;;;;5.60;1.70;;;20.90;99.90;;;;;;5077608;28;20494;-79
2022/07/29 11:20:41;;;;;;;6.30;1.93;;;20.80;99.90;;;;;;5077813;28;20534;-77
2022/07/29 11:23:24;;;;;;;4.83;2.27;;;20.80;99.90;;;;;;5077365;28;20453;-81
2022/07/29 11:26:24;;;;;;;3.67;1.90;;;20.90;99.90;;;;;;5061023;28;20474;-79
2022/07/29 11:28:58;;;;;;;7.40;1.97;;;20.90;99.90;;;;;;5075180;28;20554;-80
2022/07/29 11:31:39;;;;;;;5.47;2.40;;;21.00;99.90;;;;;;5075486;28;20463;-78
2022/07/29 11:34:32;;;;;;;4.70;2.50;;;21.00;99.90;;;;;;5076060;28;20942;-81
2022/07/29 11:37:18;;;;;;;10.00;2.27;;;21.00;99.90;;;;;;5067613;28;20477;-78
2022/07/29 11:39:47;;;;;;;5.13;1.87;;;21.10;99.90;;;;;;5075576;28;20462;-78
2022/07/29 11:42:40;;;;;;;4.70;2.30;;;21.30;99.90;;;;;;5077374;28;20877;-82
2022/07/29 11:45:13;;;;;;;3.57;2.10;;;21.30;99.90;;;;;;5064516;28;21853;-80
2022/07/29 11:47:42;;;;;;;4.33;2.23;;;21.60;99.90;;;;;;5069140;28;20493;-79
2022/07/29 11:50:10;;;;;;;6.67;2.40;;;21.60;99.90;;;;;;5079462;28;20451;-81
2022/07/29 11:52:42;;;;;;;5.50;2.17;;;21.60;99.90;;;;;;5082502;28;20486;-80
2022/07/29 11:55:13;;;;;;;6.33;2.57;;;21.70;99.90;;;;;;5084289;28;20454;-83
2022/07/29 11:57:53;;;;;;;6.37;2.57;;;21.70;99.90;;;;;;5083665;28;20974;-79
2022/07/29 12:00:29;;;;;;;4.13;2.10;;;21.80;99.90;;;;;;5082437;28;20446;-82
2022/07/29 12:02:57;;;;;;;8.17;2.47;;;21.90;99.90;;;;;;5080917;28;20450;-84
2022/07/29 12:05:36;;;;;;;3.57;1.33;;;22.00;99.90;;;;;;5083502;28;20534;-81
2022/07/29 12:08:18;;;;;;;4.10;1.87;;;22.00;99.90;;;;;;5080900;28;20491;-79
2022/07/29 12:10:46;;;;;;;5.33;2.10;;;22.00;99.90;;;;;;5079518;28;20439;-80
2022/07/29 12:13:16;;;;;;;5.13;2.10;;;22.10;99.90;;;;;;5083567;28;20508;-81
2022/07/29 12:15:44;;;;;;;6.53;1.60;;;22.10;99.90;;;;;;5079465;28;20534;-82
2022/07/29 12:18:12;;;;;;;2.83;1.70;;;22.20;99.90;;;;;;5075955;28;20941;-82
2022/07/29 12:20:39;;;;;;;4.83;2.57;;;22.30;99.90;;;;;;5080291;28;20842;-81
2022/07/29 12:23:08;;;;;;;4.47;1.73;;;22.40;99.90;;;;;;5083675;28;20474;-79
2022/07/29 12:25:36;;;;;;;6.90;1.97;;;22.40;99.90;;;;;;5080055;28;20455;-78
2022/07/29 12:28:07;;;;;;;4.83;2.57;;;22.50;99.90;;;;;;5079320;28;20566;-79
2022/07/29 12:30:42;;;;;;;4.13;1.80;;;22.50;99.90;;;;;;5083170;28;20462;-81
2022/07/29 12:33:30;;;;;;;6.00;2.00;;;22.50;99.90;;;;;;5083162;28;20519;-82
2022/07/29 12:35:59;;;;;;;3.73;2.07;;;22.80;99.90;;;;;;5079061;28;20522;-81
2022/07/29 12:38:26;;;;;;;6.53;2.73;;;22.80;99.90;;;;;;5085531;28;20571;-79
2022/07/29 12:40:55;;;;;;;5.27;2.53;;;23.10;99.90;;;;;;5073743;28;20455;-79
2022/07/29 12:43:23;;;;;;;5.33;2.63;;;23.30;99.90;;;;;;5085063;28;20435;-81
2022/07/29 12:45:53;;;;;;;7.43;2.90;;;23.70;99.90;;;;;;5084797;28;20519;-79
2022/07/29 12:48:34;;;;;;;8.43;3.50;;;24.00;99.90;;;;;;5079423;28;20460;-81
2022/07/29 12:51:02;;;;;;;5.53;3.20;;;24.00;99.90;;;;;;5087203;28;20485;-81
2022/07/29 12:53:31;;;;;;;6.80;3.60;;;24.70;99.90;;;;;;5080623;28;20484;-82
2022/07/29 12:56:01;;;;;;;3.57;2.40;;;25.40;99.90;;;;;;5081854;28;20486;-81
2022/07/29 12:58:30;;;;;;;8.30;2.70;;;25.90;99.90;;;;;;5079756;28;20526;-81
2022/07/29 13:01:08;;;;;;;5.20;2.60;;;25.50;99.90;;;;;;5079294;28;20486;-79
2022/07/29 13:03:50;;;;;;;4.20;2.47;;;25.50;99.90;;;;;;5076344;28;20459;-79
2022/07/29 13:06:35;;;;;;;8.73;2.63;;;26.10;99.90;;;;;;5072007;28;20459;-78
2022/07/29 13:12:25;;;;;;;5.33;1.90;;;26.50;99.90;;;;;;4915193;29;20485;-79
2022/07/29 13:14:52;;;;;;;6.47;2.20;;;26.00;99.90;;;;;;5071059;28;20452;-80